sensor_id;sensor_type;location;lat;lon;timestamp;pressure;altitude;pressure_sealevel;temperature;humidity
66801;BME280;53703;50.326;19.122;2023-01-10T00:00:49;97734.60;;;19.12;47.72
66801;BME280;53703;50.326;19.122;2023-01-10T00:06:05;97736.58;;;19.12;47.76
66801;BME280;53703;50.326;19.122;2023-01-10T00:11:14;97737.55;;;19.08;47.86
66801;BME280;53703;50.326;19.122;2023-01-10T00:16:41;97740.17;;;19.08;47.78
66801;BME280;53703;50.326;19.122;2023-01-10T00:21:49;97742.88;;;19.10;47.73
66801;BME280;53703;50.326;19.122;2023-01-10T00:26:58;97748.29;;;19.09;47.74
66801;BME280;53703;50.326;19.122;2023-01-10T00:32:08;97759.27;;;19.09;47.71
66801;BME280;53703;50.326;19.122;2023-01-10T00:37:17;97761.80;;;19.07;47.70
66801;BME280;53703;50.326;19.122;2023-01-10T00:42:25;97764.66;;;19.04;47.78
66801;BME280;53703;50.326;19.122;2023-01-10T00:47:51;97771.63;;;19.03;47.82
66801;BME280;53703;50.326;19.122;2023-01-10T00:53:00;97779.14;;;19.04;47.83
66801;BME280;53703;50.326;19.122;2023-01-10T00:58:08;97791.06;;;19.06;47.78
66801;BME280;53703;50.326;19.122;2023-01-10T01:03:20;97799.50;;;19.07;47.82
66801;BME280;53703;50.326;19.122;2023-01-10T01:08:29;97811.46;;;19.05;47.78
66801;BME280;53703;50.326;19.122;2023-01-10T01:13:37;97812.23;;;19.04;47.83
66801;BME280;53703;50.326;19.122;2023-01-10T01:18:45;97817.79;;;19.09;47.73
66801;BME280;53703;50.326;19.122;2023-01-10T01:23:54;97823.63;;;19.14;47.60
66801;BME280;53703;50.326;19.122;2023-01-10T01:29:03;97824.67;;;19.09;47.73
66801;BME280;53703;50.326;19.122;2023-01-10T01:34:12;97825.26;;;19.08;47.71
66801;BME280;53703;50.326;19.122;2023-01-10T01:39:20;97836.81;;;19.07;47.77
66801;BME280;53703;50.326;19.122;2023-01-10T01:44:35;97835.14;;;19.08;47.91
66801;BME280;53703;50.326;19.122;2023-01-10T01:49:44;97836.43;;;19.10;47.93
66801;BME280;53703;50.326;19.122;2023-01-10T01:54:56;97841.05;;;19.08;47.88
66801;BME280;53703;50.326;19.122;2023-01-10T02:00:09;97840.92;;;19.12;47.74
66801;BME280;53703;50.326;19.122;2023-01-10T02:05:19;97842.68;;;19.12;47.78
66801;BME280;53703;50.326;19.122;2023-01-10T02:10:28;97844.58;;;19.13;47.87
66801;BME280;53703;50.326;19.122;2023-01-10T02:15:40;97849.08;;;19.12;47.90
66801;BME280;53703;50.326;19.122;2023-01-10T02:21:06;97849.94;;;19.09;47.78
66801;BME280;53703;50.326;19.122;2023-01-10T02:27:06;97854.61;;;19.11;47.74
66801;BME280;53703;50.326;19.122;2023-01-10T02:32:29;97860.88;;;19.10;47.77
66801;BME280;53703;50.326;19.122;2023-01-10T02:38:07;97872.23;;;19.06;47.90
66801;BME280;53703;50.326;19.122;2023-01-10T02:43:21;97878.41;;;19.03;47.88
66801;BME280;53703;50.326;19.122;2023-01-10T02:48:30;97878.40;;;19.01;48.06
66801;BME280;53703;50.326;19.122;2023-01-10T02:53:43;97889.16;;;19.04;47.92
66801;BME280;53703;50.326;19.122;2023-01-10T02:59:28;97894.92;;;19.03;48.04
66801;BME280;53703;50.326;19.122;2023-01-10T03:04:50;97902.80;;;19.04;47.99
66801;BME280;53703;50.326;19.122;2023-01-10T03:10:06;97908.38;;;19.02;47.99
66801;BME280;53703;50.326;19.122;2023-01-10T03:15:19;97918.73;;;19.04;47.98
66801;BME280;53703;50.326;19.122;2023-01-10T03:20:31;97922.52;;;19.02;48.10
66801;BME280;53703;50.326;19.122;2023-01-10T03:25:43;97928.80;;;19.01;48.13
66801;BME280;53703;50.326;19.122;2023-01-10T03:30:56;97933.77;;;19.00;48.20
66801;BME280;53703;50.326;19.122;2023-01-10T03:36:17;97942.87;;;19.02;47.99
66801;BME280;53703;50.326;19.122;2023-01-10T03:41:38;97946.48;;;19.07;47.93
66801;BME280;53703;50.326;19.122;2023-01-10T03:46:53;97964.60;;;18.99;48.22
66801;BME280;53703;50.326;19.122;2023-01-10T03:52:06;97972.58;;;19.05;48.20
66801;BME280;53703;50.326;19.122;2023-01-10T03:57:26;97983.99;;;19.00;48.08
66801;BME280;53703;50.326;19.122;2023-01-10T04:02:34;97985.68;;;18.99;48.08
66801;BME280;53703;50.326;19.122;2023-01-10T04:07:42;97991.46;;;18.91;48.28
66801;BME280;53703;50.326;19.122;2023-01-10T04:12:51;97995.70;;;18.91;48.35
66801;BME280;53703;50.326;19.122;2023-01-10T04:17:59;98000.93;;;18.90;48.36
66801;BME280;53703;50.326;19.122;2023-01-10T04:23:08;98004.15;;;18.95;48.27
66801;BME280;53703;50.326;19.122;2023-01-10T04:28:16;98017.38;;;18.95;48.18
66801;BME280;53703;50.326;19.122;2023-01-10T04:33:24;98026.33;;;18.93;48.09
66801;BME280;53703;50.326;19.122;2023-01-10T04:38:34;98032.86;;;18.85;48.31
66801;BME280;53703;50.326;19.122;2023-01-10T04:43:44;98035.55;;;18.81;48.42
66801;BME280;53703;50.326;19.122;2023-01-10T04:48:52;98036.70;;;18.82;48.38
66801;BME280;53703;50.326;19.122;2023-01-10T04:54:00;98051.54;;;18.83;48.27
66801;BME280;53703;50.326;19.122;2023-01-10T04:59:10;98056.93;;;18.81;48.33
66801;BME280;53703;50.326;19.122;2023-01-10T05:04:19;98058.74;;;18.83;48.28
66801;BME280;53703;50.326;19.122;2023-01-10T05:09:29;98070.14;;;18.85;48.21
66801;BME280;53703;50.326;19.122;2023-01-10T05:14:37;98081.92;;;18.86;48.37
66801;BME280;53703;50.326;19.122;2023-01-10T05:19:45;98089.04;;;18.92;48.20
66801;BME280;53703;50.326;19.122;2023-01-10T05:24:54;98094.16;;;18.79;48.88
66801;BME280;53703;50.326;19.122;2023-01-10T05:30:02;98097.80;;;18.99;48.25
66801;BME280;53703;50.326;19.122;2023-01-10T05:35:12;98111.45;;;18.96;49.16
66801;BME280;53703;50.326;19.122;2023-01-10T05:40:21;98121.96;;;18.91;48.75
66801;BME280;53703;50.326;19.122;2023-01-10T05:45:29;98135.25;;;18.91;48.65
66801;BME280;53703;50.326;19.122;2023-01-10T05:50:38;98142.11;;;18.91;48.44
66801;BME280;53703;50.326;19.122;2023-01-10T05:56:07;98153.13;;;18.84;48.61
66801;BME280;53703;50.326;19.122;2023-01-10T06:01:16;98164.73;;;18.82;48.70
66801;BME280;53703;50.326;19.122;2023-01-10T06:06:25;98164.17;;;18.80;48.70
66801;BME280;53703;50.326;19.122;2023-01-10T06:11:33;98163.90;;;18.75;48.73
66801;BME280;53703;50.326;19.122;2023-01-10T06:16:45;98178.36;;;18.69;49.12
66801;BME280;53703;50.326;19.122;2023-01-10T06:21:53;98182.13;;;18.68;49.10
66801;BME280;53703;50.326;19.122;2023-01-10T06:27:02;98189.08;;;18.64;49.96
66801;BME280;53703;50.326;19.122;2023-01-10T06:32:10;98199.84;;;18.67;50.09
66801;BME280;53703;50.326;19.122;2023-01-10T06:37:19;98212.11;;;18.79;50.07
66801;BME280;53703;50.326;19.122;2023-01-10T06:42:27;98217.83;;;18.81;50.17
66801;BME280;53703;50.326;19.122;2023-01-10T06:47:36;98223.13;;;18.85;50.90
66801;BME280;53703;50.326;19.122;2023-01-10T06:52:44;98229.17;;;18.81;50.45
66801;BME280;53703;50.326;19.122;2023-01-10T06:57:57;98248.08;;;18.74;50.77
66801;BME280;53703;50.326;19.122;2023-01-10T07:03:06;98259.89;;;18.75;51.04
66801;BME280;53703;50.326;19.122;2023-01-10T07:08:14;98267.27;;;18.69;51.03
66801;BME280;53703;50.326;19.122;2023-01-10T07:13:23;98269.39;;;18.69;50.72
66801;BME280;53703;50.326;19.122;2023-01-10T07:18:32;98269.27;;;18.68;50.66
66801;BME280;53703;50.326;19.122;2023-01-10T07:23:42;98275.98;;;18.61;50.61
66801;BME280;53703;50.326;19.122;2023-01-10T07:28:52;98281.09;;;18.69;50.48
66801;BME280;53703;50.326;19.122;2023-01-10T07:34:00;98277.23;;;18.65;50.61
66801;BME280;53703;50.326;19.122;2023-01-10T07:39:09;98284.37;;;18.63;50.62
66801;BME280;53703;50.326;19.122;2023-01-10T07:44:19;98286.63;;;18.60;51.06
66801;BME280;53703;50.326;19.122;2023-01-10T07:49:29;98296.88;;;18.33;50.37
66801;BME280;53703;50.326;19.122;2023-01-10T07:54:37;98302.70;;;18.50;50.25
66801;BME280;53703;50.326;19.122;2023-01-10T07:59:45;98303.06;;;18.64;51.24
66801;BME280;53703;50.326;19.122;2023-01-10T08:04:54;98304.71;;;18.52;51.15
66801;BME280;53703;50.326;19.122;2023-01-10T08:10:02;98321.84;;;18.46;50.99
66801;BME280;53703;50.326;19.122;2023-01-10T08:15:12;98328.52;;;18.43;50.48
66801;BME280;53703;50.326;19.122;2023-01-10T08:20:22;98328.77;;;18.31;51.13
66801;BME280;53703;50.326;19.122;2023-01-10T08:25:31;98326.30;;;18.27;50.90
66801;BME280;53703;50.326;19.122;2023-01-10T08:30:40;98331.39;;;18.28;51.12
66801;BME280;53703;50.326;19.122;2023-01-10T08:35:49;98343.87;;;18.22;50.78
66801;BME280;53703;50.326;19.122;2023-01-10T08:40:59;98358.16;;;18.20;50.79
66801;BME280;53703;50.326;19.122;2023-01-10T08:46:08;98356.83;;;18.17;50.98
66801;BME280;53703;50.326;19.122;2023-01-10T08:51:17;98359.56;;;18.16;50.96
66801;BME280;53703;50.326;19.122;2023-01-10T08:56:27;98365.73;;;18.16;51.10
66801;BME280;53703;50.326;19.122;2023-01-10T09:01:37;98376.17;;;18.15;50.98
66801;BME280;53703;50.326;19.122;2023-01-10T09:06:45;98394.63;;;18.21;50.86
66801;BME280;53703;50.326;19.122;2023-01-10T09:11:54;98399.21;;;18.14;51.11
66801;BME280;53703;50.326;19.122;2023-01-10T09:17:03;98410.46;;;18.11;51.03
66801;BME280;53703;50.326;19.122;2023-01-10T09:22:12;98424.87;;;18.39;50.41
66801;BME280;53703;50.326;19.122;2023-01-10T09:27:22;98431.33;;;18.22;50.71
66801;BME280;53703;50.326;19.122;2023-01-10T09:32:30;98428.87;;;18.15;50.63
66801;BME280;53703;50.326;19.122;2023-01-10T09:37:39;98435.20;;;18.08;50.79
66801;BME280;53703;50.326;19.122;2023-01-10T09:43:07;98441.60;;;18.07;50.66
66801;BME280;53703;50.326;19.122;2023-01-10T09:48:24;98446.41;;;18.14;50.49
66801;BME280;53703;50.326;19.122;2023-01-10T09:53:37;98450.77;;;18.11;50.26
66801;BME280;53703;50.326;19.122;2023-01-10T09:58:47;98449.48;;;18.08;50.23
66801;BME280;53703;50.326;19.122;2023-01-10T10:04:06;98458.11;;;18.05;50.04
66801;BME280;53703;50.326;19.122;2023-01-10T10:09:24;98464.43;;;18.02;50.00
66801;BME280;53703;50.326;19.122;2023-01-10T10:14:46;98472.80;;;18.12;50.08
66801;BME280;53703;50.326;19.122;2023-01-10T10:20:22;98472.10;;;18.08;50.12
66801;BME280;53703;50.326;19.122;2023-01-10T10:25:48;98472.77;;;14.93;52.18
66801;BME280;53703;50.326;19.122;2023-01-10T10:31:06;98476.06;;;17.02;49.94
66801;BME280;53703;50.326;19.122;2023-01-10T10:36:25;98484.10;;;17.74;49.28
66801;BME280;53703;50.326;19.122;2023-01-10T10:41:45;98492.85;;;17.72;49.55
66801;BME280;53703;50.326;19.122;2023-01-10T10:46:58;98493.21;;;17.71;49.47
66801;BME280;53703;50.326;19.122;2023-01-10T10:52:18;98498.03;;;17.82;49.60
66801;BME280;53703;50.326;19.122;2023-01-10T10:57:32;98500.80;;;17.84;49.72
66801;BME280;53703;50.326;19.122;2023-01-10T11:02:45;98503.32;;;17.82;49.69
66801;BME280;53703;50.326;19.122;2023-01-10T11:07:58;98504.61;;;17.84;49.69
66801;BME280;53703;50.326;19.122;2023-01-10T11:13:19;98516.89;;;17.91;49.72
66801;BME280;53703;50.326;19.122;2023-01-10T11:18:30;98529.20;;;17.84;49.69
66801;BME280;53703;50.326;19.122;2023-01-10T11:23:52;98537.39;;;17.86;49.66
66801;BME280;53703;50.326;19.122;2023-01-10T11:29:13;98531.64;;;17.85;49.69
66801;BME280;53703;50.326;19.122;2023-01-10T11:34:27;98540.73;;;17.78;49.68
66801;BME280;53703;50.326;19.122;2023-01-10T11:39:37;98553.34;;;17.77;51.56
66801;BME280;53703;50.326;19.122;2023-01-10T11:44:45;98556.50;;;17.65;53.06
66801;BME280;53703;50.326;19.122;2023-01-10T11:49:53;98559.70;;;17.73;52.82
66801;BME280;53703;50.326;19.122;2023-01-10T11:55:05;98575.19;;;16.56;53.44
66801;BME280;53703;50.326;19.122;2023-01-10T12:00:17;98577.89;;;14.01;54.65
66801;BME280;53703;50.326;19.122;2023-01-10T12:05:25;98593.70;;;16.47;50.84
66801;BME280;53703;50.326;19.122;2023-01-10T12:10:35;98598.20;;;17.22;49.78
66801;BME280;53703;50.326;19.122;2023-01-10T12:15:44;98603.17;;;17.34;49.92
66801;BME280;53703;50.326;19.122;2023-01-10T12:20:57;98603.27;;;17.40;49.83
66801;BME280;53703;50.326;19.122;2023-01-10T12:26:06;98611.55;;;17.49;49.85
66801;BME280;53703;50.326;19.122;2023-01-10T12:31:21;98620.61;;;17.52;50.09
66801;BME280;53703;50.326;19.122;2023-01-10T12:36:45;98629.67;;;17.54;50.77
66801;BME280;53703;50.326;19.122;2023-01-10T12:42:08;98636.95;;;17.45;52.17
66801;BME280;53703;50.326;19.122;2023-01-10T12:47:46;98644.32;;;17.46;51.81
66801;BME280;53703;50.326;19.122;2023-01-10T12:53:01;98648.52;;;17.43;51.96
66801;BME280;53703;50.326;19.122;2023-01-10T12:58:19;98653.63;;;17.39;51.77
66801;BME280;53703;50.326;19.122;2023-01-10T13:03:31;98661.36;;;17.39;51.45
66801;BME280;53703;50.326;19.122;2023-01-10T13:08:41;98661.18;;;17.36;51.43
66801;BME280;53703;50.326;19.122;2023-01-10T13:13:54;98667.19;;;17.52;51.45
66801;BME280;53703;50.326;19.122;2023-01-10T13:19:24;98668.48;;;17.42;51.13
66801;BME280;53703;50.326;19.122;2023-01-10T13:24:33;98675.73;;;17.38;51.10
66801;BME280;53703;50.326;19.122;2023-01-10T13:29:43;98674.74;;;17.23;51.67
66801;BME280;53703;50.326;19.122;2023-01-10T13:34:53;98685.69;;;17.18;51.66
66801;BME280;53703;50.326;19.122;2023-01-10T13:40:06;98692.02;;;17.14;51.69
66801;BME280;53703;50.326;19.122;2023-01-10T13:45:27;98701.48;;;17.29;51.28
66801;BME280;53703;50.326;19.122;2023-01-10T13:51:11;98706.77;;;17.38;51.17
66801;BME280;53703;50.326;19.122;2023-01-10T13:56:38;98711.09;;;17.31;51.32
66801;BME280;53703;50.326;19.122;2023-01-10T14:01:53;98720.00;;;17.29;51.16
66801;BME280;53703;50.326;19.122;2023-01-10T14:07:29;98721.77;;;17.33;51.09
66801;BME280;53703;50.326;19.122;2023-01-10T14:12:45;98727.21;;;17.38;51.40
66801;BME280;53703;50.326;19.122;2023-01-10T14:18:02;98729.65;;;17.52;51.58
66801;BME280;53703;50.326;19.122;2023-01-10T14:23:22;98737.25;;;17.52;52.68
66801;BME280;53703;50.326;19.122;2023-01-10T14:28:36;98739.92;;;17.47;52.50
66801;BME280;53703;50.326;19.122;2023-01-10T14:33:50;98747.15;;;17.48;52.41
66801;BME280;53703;50.326;19.122;2023-01-10T14:39:03;98741.71;;;17.46;52.13
66801;BME280;53703;50.326;19.122;2023-01-10T14:44:18;98747.48;;;17.44;51.76
66801;BME280;53703;50.326;19.122;2023-01-10T14:49:34;98757.61;;;17.55;51.64
66801;BME280;53703;50.326;19.122;2023-01-10T14:54:43;98767.77;;;17.61;51.66
66801;BME280;53703;50.326;19.122;2023-01-10T15:00:03;98781.20;;;17.56;52.83
66801;BME280;53703;50.326;19.122;2023-01-10T15:05:18;98794.33;;;17.54;52.70
66801;BME280;53703;50.326;19.122;2023-01-10T15:10:33;98789.84;;;17.57;52.50
66801;BME280;53703;50.326;19.122;2023-01-10T15:15:46;98789.26;;;17.58;52.14
66801;BME280;53703;50.326;19.122;2023-01-10T15:20:56;98797.15;;;17.64;51.95
66801;BME280;53703;50.326;19.122;2023-01-10T15:26:08;98809.15;;;17.68;51.59
66801;BME280;53703;50.326;19.122;2023-01-10T15:31:21;98816.26;;;17.72;51.37
66801;BME280;53703;50.326;19.122;2023-01-10T15:36:29;98814.91;;;17.75;51.08
66801;BME280;53703;50.326;19.122;2023-01-10T15:41:38;98812.94;;;17.80;50.96
66801;BME280;53703;50.326;19.122;2023-01-10T15:46:57;98814.13;;;17.86;50.64
66801;BME280;53703;50.326;19.122;2023-01-10T15:52:21;98813.30;;;17.93;50.46
66801;BME280;53703;50.326;19.122;2023-01-10T15:57:31;98826.50;;;17.98;50.32
66801;BME280;53703;50.326;19.122;2023-01-10T16:02:42;98833.98;;;18.01;50.30
66801;BME280;53703;50.326;19.122;2023-01-10T16:07:51;98845.95;;;18.02;50.37
66801;BME280;53703;50.326;19.122;2023-01-10T16:13:14;98847.62;;;18.13;49.91
66801;BME280;53703;50.326;19.122;2023-01-10T16:18:37;98852.00;;;18.31;49.36
66801;BME280;53703;50.326;19.122;2023-01-10T16:23:46;98847.39;;;18.19;49.68
66801;BME280;53703;50.326;19.122;2023-01-10T16:28:54;98844.23;;;18.31;49.20
66801;BME280;53703;50.326;19.122;2023-01-10T16:34:02;98844.13;;;18.50;49.06
66801;BME280;53703;50.326;19.122;2023-01-10T16:39:15;98851.34;;;18.34;49.43
66801;BME280;53703;50.326;19.122;2023-01-10T16:44:24;98871.77;;;18.44;49.10
66801;BME280;53703;50.326;19.122;2023-01-10T16:49:33;98886.98;;;18.43;49.08
66801;BME280;53703;50.326;19.122;2023-01-10T16:54:41;98899.58;;;18.47;48.94
66801;BME280;53703;50.326;19.122;2023-01-10T16:59:49;98905.48;;;18.50;48.87
66801;BME280;53703;50.326;19.122;2023-01-10T17:04:58;98916.44;;;18.50;48.81
66801;BME280;53703;50.326;19.122;2023-01-10T17:10:08;98930.81;;;18.57;48.60
66801;BME280;53703;50.326;19.122;2023-01-10T17:15:17;98938.92;;;18.61;48.43
66801;BME280;53703;50.326;19.122;2023-01-10T17:20:26;98951.98;;;18.67;48.45
66801;BME280;53703;50.326;19.122;2023-01-10T17:25:36;98957.12;;;18.75;48.40
66801;BME280;53703;50.326;19.122;2023-01-10T17:30:45;98966.42;;;18.81;48.17
66801;BME280;53703;50.326;19.122;2023-01-10T17:35:55;98973.19;;;19.01;47.83
66801;BME280;53703;50.326;19.122;2023-01-10T17:41:04;98974.27;;;18.80;48.09
66801;BME280;53703;50.326;19.122;2023-01-10T17:46:13;98988.58;;;18.76;48.15
66801;BME280;53703;50.326;19.122;2023-01-10T17:51:24;98981.80;;;18.77;47.92
66801;BME280;53703;50.326;19.122;2023-01-10T17:56:35;98980.61;;;18.84;47.91
66801;BME280;53703;50.326;19.122;2023-01-10T18:01:43;98984.86;;;18.88;47.86
66801;BME280;53703;50.326;19.122;2023-01-10T18:06:52;98987.92;;;18.75;47.98
66801;BME280;53703;50.326;19.122;2023-01-10T18:12:01;98995.16;;;18.92;47.95
66801;BME280;53703;50.326;19.122;2023-01-10T18:17:11;98989.29;;;18.97;47.42
66801;BME280;53703;50.326;19.122;2023-01-10T18:22:18;98991.22;;;18.97;47.63
66801;BME280;53703;50.326;19.122;2023-01-10T18:27:44;98997.00;;;18.94;47.50
66801;BME280;53703;50.326;19.122;2023-01-10T18:32:57;99007.35;;;19.04;47.68
66801;BME280;53703;50.326;19.122;2023-01-10T18:38:05;99009.98;;;19.13;47.48
66801;BME280;53703;50.326;19.122;2023-01-10T18:43:14;99017.22;;;19.06;48.63
66801;BME280;53703;50.326;19.122;2023-01-10T18:48:23;99018.27;;;19.06;48.87
66801;BME280;53703;50.326;19.122;2023-01-10T18:53:33;99009.08;;;19.01;49.23
66801;BME280;53703;50.326;19.122;2023-01-10T18:58:43;99008.77;;;18.92;49.20
66801;BME280;53703;50.326;19.122;2023-01-10T19:03:52;99014.66;;;18.99;48.91
66801;BME280;53703;50.326;19.122;2023-01-10T19:09:00;99019.80;;;18.91;48.98
66801;BME280;53703;50.326;19.122;2023-01-10T19:14:08;99015.36;;;18.95;48.89
66801;BME280;53703;50.326;19.122;2023-01-10T19:19:17;99017.80;;;19.13;47.83
66801;BME280;53703;50.326;19.122;2023-01-10T19:24:27;99020.90;;;19.19;48.37
66801;BME280;53703;50.326;19.122;2023-01-10T19:29:41;99019.71;;;19.18;48.97
66801;BME280;53703;50.326;19.122;2023-01-10T19:34:52;99026.61;;;19.05;49.07
66801;BME280;53703;50.326;19.122;2023-01-10T19:40:01;99030.66;;;19.02;48.96
66801;BME280;53703;50.326;19.122;2023-01-10T19:45:13;99037.38;;;18.97;48.92
66801;BME280;53703;50.326;19.122;2023-01-10T19:50:22;99043.36;;;18.94;49.08
66801;BME280;53703;50.326;19.122;2023-01-10T19:55:31;99044.52;;;18.92;49.13
66801;BME280;53703;50.326;19.122;2023-01-10T20:00:39;99038.35;;;18.91;49.18
66801;BME280;53703;50.326;19.122;2023-01-10T20:05:47;99039.04;;;18.92;49.08
66801;BME280;53703;50.326;19.122;2023-01-10T20:10:57;99047.76;;;18.95;48.79
66801;BME280;53703;50.326;19.122;2023-01-10T20:16:11;99047.52;;;18.92;48.83
66801;BME280;53703;50.326;19.122;2023-01-10T20:21:20;99050.48;;;18.97;48.73
66801;BME280;53703;50.326;19.122;2023-01-10T20:26:29;99047.64;;;19.10;48.78
66801;BME280;53703;50.326;19.122;2023-01-10T20:31:37;99046.55;;;18.98;48.88
66801;BME280;53703;50.326;19.122;2023-01-10T20:36:46;99054.66;;;18.95;48.68
66801;BME280;53703;50.326;19.122;2023-01-10T20:41:58;99056.41;;;18.95;48.65
66801;BME280;53703;50.326;19.122;2023-01-10T20:47:07;99053.98;;;18.98;48.37
66801;BME280;53703;50.326;19.122;2023-01-10T20:52:16;99056.98;;;18.98;48.37
66801;BME280;53703;50.326;19.122;2023-01-10T20:57:24;99069.04;;;18.97;48.33
66801;BME280;53703;50.326;19.122;2023-01-10T21:02:36;99070.92;;;18.95;48.08
66801;BME280;53703;50.326;19.122;2023-01-10T21:07:44;99074.88;;;18.97;48.29
66801;BME280;53703;50.326;19.122;2023-01-10T21:12:53;99084.62;;;18.97;48.26
66801;BME280;53703;50.326;19.122;2023-01-10T21:18:02;99081.10;;;19.01;47.79
66801;BME280;53703;50.326;19.122;2023-01-10T21:23:12;99082.91;;;19.00;48.10
66801;BME280;53703;50.326;19.122;2023-01-10T21:28:21;99086.08;;;19.00;48.15
66801;BME280;53703;50.326;19.122;2023-01-10T21:33:30;99089.16;;;18.99;48.06
66801;BME280;53703;50.326;19.122;2023-01-10T21:38:38;99093.40;;;18.98;48.09
66801;BME280;53703;50.326;19.122;2023-01-10T21:43:47;99104.08;;;19.02;48.03
66801;BME280;53703;50.326;19.122;2023-01-10T21:48:56;99100.14;;;19.03;48.03
66801;BME280;53703;50.326;19.122;2023-01-10T21:54:04;99103.92;;;19.01;47.92
66801;BME280;53703;50.326;19.122;2023-01-10T21:59:13;99111.75;;;19.00;48.06
66801;BME280;53703;50.326;19.122;2023-01-10T22:04:23;99113.30;;;19.01;47.94
66801;BME280;53703;50.326;19.122;2023-01-10T22:09:32;99111.79;;;18.99;47.98
66801;BME280;53703;50.326;19.122;2023-01-10T22:14:44;99112.92;;;19.06;47.89
66801;BME280;53703;50.326;19.122;2023-01-10T22:19:52;99104.09;;;19.06;47.71
66801;BME280;53703;50.326;19.122;2023-01-10T22:25:00;99100.61;;;19.05;47.81
66801;BME280;53703;50.326;19.122;2023-01-10T22:30:12;99101.13;;;19.05;47.74
66801;BME280;53703;50.326;19.122;2023-01-10T22:35:20;99102.64;;;19.03;47.80
66801;BME280;53703;50.326;19.122;2023-01-10T22:40:33;99107.33;;;19.00;47.78
66801;BME280;53703;50.326;19.122;2023-01-10T22:45:43;99107.73;;;19.03;47.75
66801;BME280;53703;50.326;19.122;2023-01-10T22:50:51;99104.02;;;19.04;47.72
66801;BME280;53703;50.326;19.122;2023-01-10T22:56:03;99099.77;;;19.03;47.74
66801;BME280;53703;50.326;19.122;2023-01-10T23:01:12;99101.04;;;19.03;47.66
66801;BME280;53703;50.326;19.122;2023-01-10T23:06:21;99106.09;;;19.00;47.86
66801;BME280;53703;50.326;19.122;2023-01-10T23:11:29;99107.98;;;19.02;47.82
66801;BME280;53703;50.326;19.122;2023-01-10T23:16:37;99106.96;;;19.00;47.96
66801;BME280;53703;50.326;19.122;2023-01-10T23:21:46;99103.56;;;19.01;47.99
66801;BME280;53703;50.326;19.122;2023-01-10T23:26:55;99098.92;;;19.02;48.06
66801;BME280;53703;50.326;19.122;2023-01-10T23:32:03;99098.53;;;19.03;47.96
66801;BME280;53703;50.326;19.122;2023-01-10T23:37:12;99096.09;;;18.98;48.01
66801;BME280;53703;50.326;19.122;2023-01-10T23:42:21;99095.13;;;18.96;47.96
66801;BME280;53703;50.326;19.122;2023-01-10T23:47:29;99094.70;;;18.97;47.99
66801;BME280;53703;50.326;19.122;2023-01-10T23:52:38;99106.72;;;18.94;48.05
66801;BME280;53703;50.326;19.122;2023-01-10T23:57:46;99111.21;;;18.92;48.10
